Time;durP1;ratioP1;P1;durP2;ratioP2;P2;SDS_P1;SDS_P2;PMS_P1;PMS_P2;Temp;Humidity;BMP_temperature;BMP_pressure;BME280_temperature;BME280_humidity;BME280_pressure;Samples;Min_cycle;Max_cycle;Signal;HPM_P1;HPM_P2
2023/08/22 00:00:12;;;;;;;4.23;1.20;;;;;;;;;;5082689;28;20779;-59
2023/08/22 00:02:38;;;;;;;4.72;1.30;;;;;;;;;;5080978;28;20406;-59
2023/08/22 00:05:03;;;;;;;4.57;1.17;;;;;;;;;;5079380;28;20404;-59
2023/08/22 00:07:29;;;;;;;4.27;1.27;;;;;;;;;;5083584;28;20408;-59
2023/08/22 00:09:54;;;;;;;3.13;1.10;;;;;;;;;;5081983;28;20456;-59
2023/08/22 00:12:19;;;;;;;3.53;1.10;;;;;;;;;;5078440;28;21199;-59
2023/08/22 00:14:45;;;;;;;3.93;1.13;;;;;;;;;;5082892;28;20398;-59
2023/08/22 00:17:11;;;;;;;7.13;1.50;;;;;;;;;;5053530;28;20441;-60
2023/08/22 00:19:36;;;;;;;5.27;1.10;;;;;;;;;;5042205;28;20413;-59
2023/08/22 00:22:02;;;;;;;5.83;1.40;;;;;;;;;;5040181;28;20413;-60
2023/08/22 00:24:27;;;;;;;5.20;1.37;;;;;;;;;;5040310;28;20408;-60
2023/08/22 00:26:53;;;;;;;4.20;1.40;;;;;;;;;;5041846;28;20413;-59
2023/08/22 00:29:19;;;;;;;3.93;1.30;;;;;;;;;;5043032;28;20412;-59
2023/08/22 00:31:44;;;;;;;3.23;1.20;;;;;;;;;;5033792;28;20746;-59
2023/08/22 00:34:09;;;;;;;3.50;1.27;;;;;;;;;;5032529;28;20531;-60
2023/08/22 00:36:34;;;;;;;4.57;1.40;;;;;;;;;;5033460;28;20432;-60
2023/08/22 00:39:00;;;;;;;6.00;1.50;;;;;;;;;;5040313;28;20446;-59
2023/08/22 00:41:25;;;;;;;5.18;1.17;;;;;;;;;;5040743;28;20406;-59
2023/08/22 00:43:51;;;;;;;4.13;1.30;;;;;;;;;;5041166;28;20918;-59
2023/08/22 00:46:16;;;;;;;3.60;1.20;;;;;;;;;;5040457;28;20421;-60
2023/08/22 00:48:42;;;;;;;4.70;1.20;;;;;;;;;;5041214;28;21472;-59
2023/08/22 00:51:07;;;;;;;4.80;1.37;;;;;;;;;;5040270;28;20460;-60
2023/08/22 00:53:32;;;;;;;6.17;1.60;;;;;;;;;;5036552;28;20403;-60
2023/08/22 00:55:58;;;;;;;4.03;1.47;;;;;;;;;;5033901;28;20413;-59
2023/08/22 00:58:23;;;;;;;4.03;1.30;;;;;;;;;;5032435;28;20413;-59
2023/08/22 01:00:49;;;;;;;3.17;1.20;;;;;;;;;;5038624;28;20411;-59
2023/08/22 01:03:14;;;;;;;4.23;1.33;;;;;;;;;;5040985;28;20990;-60
2023/08/22 01:05:42;;;;;;;3.90;1.40;;;;;;;;;;5042204;28;20410;-59
2023/08/22 01:08:11;;;;;;;3.72;1.10;;;;;;;;;;5044777;28;20416;-60
2023/08/22 01:10:38;;;;;;;7.88;1.73;;;;;;;;;;5030056;28;20815;-59
2023/08/22 01:13:08;;;;;;;5.82;1.40;;;;;;;;;;5043401;28;20404;-60
2023/08/22 01:15:34;;;;;;;6.22;1.70;;;;;;;;;;5040583;28;20405;-59
2023/08/22 01:18:03;;;;;;;5.23;1.50;;;;;;;;;;5037097;28;20924;-59
2023/08/22 01:20:29;;;;;;;3.45;1.23;;;;;;;;;;5029620;28;20464;-59
2023/08/22 01:22:54;;;;;;;4.35;1.48;;;;;;;;;;5026487;28;21370;-60
2023/08/22 01:25:19;;;;;;;5.13;1.42;;;;;;;;;;5036767;28;20401;-60
2023/08/22 01:27:50;;;;;;;3.83;1.30;;;;;;;;;;5038106;28;20418;-59
2023/08/22 01:30:18;;;;;;;3.57;1.33;;;;;;;;;;5042942;28;20396;-59
2023/08/22 01:32:44;;;;;;;5.57;1.70;;;;;;;;;;5045487;28;20427;-59
2023/08/22 01:35:09;;;;;;;5.13;1.37;;;;;;;;;;5033306;28;20405;-59
2023/08/22 01:37:34;;;;;;;4.10;1.40;;;;;;;;;;5024948;28;20607;-59
2023/08/22 01:40:00;;;;;;;4.83;1.40;;;;;;;;;;5018546;28;20401;-60
2023/08/22 01:42:25;;;;;;;5.73;1.50;;;;;;;;;;5018449;28;20401;-59
2023/08/22 01:44:50;;;;;;;4.73;1.80;;;;;;;;;;5020407;28;21145;-59
2023/08/22 01:47:16;;;;;;;5.80;1.60;;;;;;;;;;5025323;28;20911;-59
2023/08/22 01:49:41;;;;;;;4.23;1.57;;;;;;;;;;5043347;28;20410;-59
2023/08/22 01:52:06;;;;;;;6.27;1.50;;;;;;;;;;5048153;28;20406;-59
2023/08/22 01:54:33;;;;;;;4.83;1.60;;;;;;;;;;5065168;28;20403;-59
2023/08/22 01:56:58;;;;;;;5.22;1.40;;;;;;;;;;5065514;28;20476;-59
2023/08/22 01:59:24;;;;;;;5.47;1.60;;;;;;;;;;5079044;28;20489;-59
2023/08/22 02:01:49;;;;;;;5.77;1.40;;;;;;;;;;5085234;28;20419;-59
2023/08/22 02:04:14;;;;;;;5.17;1.57;;;;;;;;;;5084394;28;20423;-60
2023/08/22 02:06:39;;;;;;;5.47;1.70;;;;;;;;;;5081865;28;20432;-59
2023/08/22 02:09:05;;;;;;;5.33;1.50;;;;;;;;;;5065551;28;20420;-60
2023/08/22 02:11:30;;;;;;;4.07;1.73;;;;;;;;;;5064304;28;20734;-59
2023/08/22 02:13:56;;;;;;;5.07;1.77;;;;;;;;;;5062992;28;20404;-59
2023/08/22 02:16:21;;;;;;;3.20;1.20;;;;;;;;;;5060773;28;20428;-60
2023/08/22 02:18:46;;;;;;;4.33;1.60;;;;;;;;;;5064377;28;20419;-59
2023/08/22 02:21:12;;;;;;;5.50;1.60;;;;;;;;;;5064095;28;20505;-59
2023/08/22 02:23:37;;;;;;;5.03;1.87;;;;;;;;;;5059802;28;20401;-59
2023/08/22 02:26:02;;;;;;;7.47;2.40;;;;;;;;;;5064149;28;20924;-60
2023/08/22 02:28:27;;;;;;;5.33;1.73;;;;;;;;;;5076854;28;20401;-59
2023/08/22 02:30:53;;;;;;;3.93;1.50;;;;;;;;;;5080647;28;20449;-59
2023/08/22 02:33:19;;;;;;;5.43;1.60;;;;;;;;;;5081035;28;20398;-60
2023/08/22 02:35:44;;;;;;;5.57;1.60;;;;;;;;;;5084896;28;20841;-59
2023/08/22 02:38:09;;;;;;;5.20;1.60;;;;;;;;;;5082345;28;20410;-60
2023/08/22 02:40:34;;;;;;;3.67;1.50;;;;;;;;;;5080395;28;20405;-59
2023/08/22 02:43:00;;;;;;;4.93;1.57;;;;;;;;;;5082836;28;20398;-59
2023/08/22 02:45:25;;;;;;;6.17;2.00;;;;;;;;;;5074791;28;20380;-59
2023/08/22 02:47:50;;;;;;;6.63;1.90;;;;;;;;;;5080010;28;20757;-59
2023/08/22 02:50:16;;;;;;;6.10;1.70;;;;;;;;;;5083023;28;20400;-60
2023/08/22 02:52:41;;;;;;;5.07;1.87;;;;;;;;;;5076412;28;20472;-59
2023/08/22 02:55:07;;;;;;;5.23;1.73;;;;;;;;;;5076219;28;20502;-59
2023/08/22 02:57:33;;;;;;;4.40;1.70;;;;;;;;;;5075781;28;20477;-59
2023/08/22 02:59:58;;;;;;;6.07;2.00;;;;;;;;;;5076678;28;20425;-59
2023/08/22 03:02:23;;;;;;;5.17;1.77;;;;;;;;;;5077550;28;20372;-59
2023/08/22 03:04:49;;;;;;;6.27;1.73;;;;;;;;;;5077093;28;20873;-59
2023/08/22 03:07:14;;;;;;;4.30;1.87;;;;;;;;;;5083176;28;20445;-59
2023/08/22 03:09:39;;;;;;;4.53;1.73;;;;;;;;;;5083872;28;20451;-59
2023/08/22 03:12:05;;;;;;;5.95;1.90;;;;;;;;;;5070140;28;20489;-60
2023/08/22 03:14:30;;;;;;;4.97;1.80;;;;;;;;;;5062077;28;20431;-59
2023/08/22 03:16:55;;;;;;;4.60;1.70;;;;;;;;;;5063735;28;20408;-59
2023/08/22 03:19:21;;;;;;;5.73;2.00;;;;;;;;;;5060914;28;20414;-60
2023/08/22 03:21:46;;;;;;;5.23;1.90;;;;;;;;;;5066145;28;20388;-59
2023/08/22 03:24:11;;;;;;;5.70;2.03;;;;;;;;;;5083063;28;20765;-60
2023/08/22 03:26:37;;;;;;;6.13;2.03;;;;;;;;;;5083246;28;20701;-59
2023/08/22 03:29:02;;;;;;;6.73;2.03;;;;;;;;;;5077136;28;20507;-60
2023/08/22 03:31:27;;;;;;;5.60;2.03;;;;;;;;;;5039017;28;20408;-59
2023/08/22 03:33:53;;;;;;;4.80;2.17;;;;;;;;;;5048994;28;20894;-59
2023/08/22 03:36:18;;;;;;;5.67;1.80;;;;;;;;;;5041538;28;20397;-59
2023/08/22 03:38:46;;;;;;;4.85;2.00;;;;;;;;;;5041925;28;20408;-59
2023/08/22 03:41:11;;;;;;;5.60;1.98;;;;;;;;;;5034286;28;20435;-60
2023/08/22 03:43:36;;;;;;;6.75;2.22;;;;;;;;;;5033687;28;20631;-59
2023/08/22 03:46:01;;;;;;;5.68;1.98;;;;;;;;;;5034554;28;20560;-60
2023/08/22 03:48:27;;;;;;;5.30;1.90;;;;;;;;;;5040417;28;20416;-59
2023/08/22 03:50:52;;;;;;;5.13;1.90;;;;;;;;;;5041336;28;20409;-59
2023/08/22 03:53:17;;;;;;;5.53;1.60;;;;;;;;;;5039989;28;20408;-59
2023/08/22 03:55:43;;;;;;;6.78;2.25;;;;;;;;;;5041252;28;20537;-59
2023/08/22 03:58:08;;;;;;;5.32;2.00;;;;;;;;;;5040765;28;20942;-59
2023/08/22 04:00:34;;;;;;;6.33;2.23;;;;;;;;;;5024088;28;20872;-59
2023/08/22 04:02:59;;;;;;;5.73;1.80;;;;;;;;;;5037399;28;20399;-59
2023/08/22 04:05:24;;;;;;;5.97;2.23;;;;;;;;;;5033177;28;20401;-59
2023/08/22 04:07:50;;;;;;;5.63;2.10;;;;;;;;;;5033342;28;20469;-59
2023/08/22 04:10:15;;;;;;;5.40;1.90;;;;;;;;;;5038246;28;20411;-59
2023/08/22 04:12:41;;;;;;;4.93;1.90;;;;;;;;;;5041408;28;20760;-59
2023/08/22 04:15:06;;;;;;;7.50;2.20;;;;;;;;;;5040828;28;20416;-60
2023/08/22 04:17:32;;;;;;;5.97;2.03;;;;;;;;;;5042149;28;20897;-59
2023/08/22 04:19:57;;;;;;;4.77;2.10;;;;;;;;;;5042295;28;21755;-59
2023/08/22 04:22:22;;;;;;;6.53;2.03;;;;;;;;;;5041325;28;20487;-59
2023/08/22 04:24:47;;;;;;;4.57;1.97;;;;;;;;;;5021039;28;20902;-59
2023/08/22 04:27:13;;;;;;;4.20;1.90;;;;;;;;;;5033592;28;21312;-59
2023/08/22 04:29:38;;;;;;;7.23;2.20;;;;;;;;;;5032880;28;20400;-59
2023/08/22 04:32:03;;;;;;;5.73;2.20;;;;;;;;;;5034758;28;20942;-59
2023/08/22 04:34:29;;;;;;;4.90;1.93;;;;;;;;;;5041344;28;20417;-59
2023/08/22 04:36:54;;;;;;;6.47;2.17;;;;;;;;;;5041812;28;20885;-59
2023/08/22 04:39:19;;;;;;;5.47;2.20;;;;;;;;;;5040676;28;20390;-59
2023/08/22 04:41:45;;;;;;;7.88;2.17;;;;;;;;;;5044521;28;20457;-59
2023/08/22 04:44:11;;;;;;;7.17;2.20;;;;;;;;;;5046792;28;20409;-59
2023/08/22 04:46:36;;;;;;;6.70;2.38;;;;;;;;;;5045269;28;20397;-59
2023/08/22 04:49:01;;;;;;;5.70;2.08;;;;;;;;;;5037383;28;20405;-60
2023/08/22 04:51:27;;;;;;;6.20;2.10;;;;;;;;;;5037404;28;20401;-59
2023/08/22 04:53:53;;;;;;;7.43;2.63;;;;;;;;;;5036935;28;20623;-59
2023/08/22 04:56:18;;;;;;;4.18;2.08;;;;;;;;;;5042841;28;20406;-59
2023/08/22 04:58:44;;;;;;;6.00;2.17;;;;;;;;;;5044864;28;20404;-59
2023/08/22 05:01:09;;;;;;;5.07;2.10;;;;;;;;;;5044689;28;20793;-59
2023/08/22 05:03:34;;;;;;;7.77;2.03;;;;;;;;;;5045793;28;20411;-59
2023/08/22 05:05:59;;;;;;;6.93;2.10;;;;;;;;;;5044520;28;20423;-59
2023/08/22 05:08:25;;;;;;;4.37;1.83;;;;;;;;;;5043623;28;20782;-59
2023/08/22 05:10:50;;;;;;;8.17;2.40;;;;;;;;;;5040202;28;20613;-59
2023/08/22 05:13:15;;;;;;;4.90;2.00;;;;;;;;;;5035271;28;20393;-59
2023/08/22 05:15:41;;;;;;;4.87;1.80;;;;;;;;;;5037112;28;20408;-59
2023/08/22 05:18:07;;;;;;;6.97;2.20;;;;;;;;;;5040988;28;20559;-59
2023/08/22 05:20:32;;;;;;;6.70;2.08;;;;;;;;;;5044391;28;20418;-58
2023/08/22 05:22:57;;;;;;;5.63;1.98;;;;;;;;;;5042981;28;20923;-59
2023/08/22 05:25:23;;;;;;;6.03;2.00;;;;;;;;;;5044208;28;20889;-58
2023/08/22 05:27:48;;;;;;;6.45;2.70;;;;;;;;;;5043870;28;20892;-58
2023/08/22 05:30:13;;;;;;;5.43;2.20;;;;;;;;;;5044216;28;20400;-59
2023/08/22 05:32:40;;;;;;;5.88;2.20;;;;;;;;;;5043212;28;21037;-58
2023/08/22 05:35:05;;;;;;;6.37;2.10;;;;;;;;;;5034823;28;20699;-59
2023/08/22 05:37:30;;;;;;;5.88;2.30;;;;;;;;;;5036092;28;20838;-58
2023/08/22 05:39:56;;;;;;;6.77;2.20;;;;;;;;;;5038545;28;20901;-58
2023/08/22 05:42:23;;;;;;;4.90;2.23;;;;;;;;;;5048447;28;20855;-59
2023/08/22 05:44:48;;;;;;;5.63;2.20;;;;;;;;;;5043484;28;20534;-58
2023/08/22 05:47:13;;;;;;;5.40;2.10;;;;;;;;;;5043362;28;20482;-58
2023/08/22 05:49:39;;;;;;;6.33;2.40;;;;;;;;;;5043158;28;20418;-58
2023/08/22 05:52:04;;;;;;;5.47;2.40;;;;;;;;;;5042940;28;20405;-58
2023/08/22 05:54:30;;;;;;;6.15;2.10;;;;;;;;;;5043124;28;20412;-58
2023/08/22 05:56:55;;;;;;;6.82;2.33;;;;;;;;;;5037272;28;20447;-59
2023/08/22 05:59:22;;;;;;;6.70;2.33;;;;;;;;;;5034339;28;20410;-58
2023/08/22 06:01:47;;;;;;;6.32;2.47;;;;;;;;;;5034683;28;20757;-58
2023/08/22 06:04:12;;;;;;;5.37;2.00;;;;;;;;;;5042324;28;20410;-59
2023/08/22 06:06:38;;;;;;;6.03;2.10;;;;;;;;;;5043133;28;20412;-58
2023/08/22 06:09:03;;;;;;;6.47;2.93;;;;;;;;;;5042729;28;20406;-59
2023/08/22 06:11:28;;;;;;;6.73;2.70;;;;;;;;;;5043675;28;20484;-58
2023/08/22 06:13:55;;;;;;;7.73;3.10;;;;;;;;;;5044558;28;20401;-58
2023/08/22 06:16:21;;;;;;;8.98;3.40;;;;;;;;;;5042627;28;20908;-59
2023/08/22 06:18:46;;;;;;;6.70;2.70;;;;;;;;;;5039056;28;20425;-59
2023/08/22 06:21:11;;;;;;;6.97;3.20;;;;;;;;;;5035446;28;20909;-58
2023/08/22 06:23:37;;;;;;;8.97;3.20;;;;;;;;;;5035254;28;20620;-58
2023/08/22 06:26:02;;;;;;;7.70;3.00;;;;;;;;;;5039788;28;20417;-59
2023/08/22 06:28:27;;;;;;;6.57;3.10;;;;;;;;;;5042572;28;20401;-59
2023/08/22 06:30:53;;;;;;;10.30;3.73;;;;;;;;;;5047251;28;20464;-59
2023/08/22 06:33:18;;;;;;;11.80;4.20;;;;;;;;;;5050526;28;20808;-59
2023/08/22 06:35:49;;;;;;;9.23;4.37;;;;;;;;;;5047169;28;20801;-59
2023/08/22 06:38:14;;;;;;;8.57;3.97;;;;;;;;;;5051327;28;20543;-59
2023/08/22 06:40:39;;;;;;;8.20;4.13;;;;;;;;;;5046496;28;20426;-59
2023/08/22 06:43:05;;;;;;;7.73;3.97;;;;;;;;;;5044894;28;20476;-59
2023/08/22 06:45:30;;;;;;;9.97;3.93;;;;;;;;;;5053134;28;20384;-58
2023/08/22 06:47:55;;;;;;;8.80;3.67;;;;;;;;;;5046528;28;20404;-59
2023/08/22 06:50:22;;;;;;;8.27;3.70;;;;;;;;;;5046788;28;20429;-59
2023/08/22 06:52:47;;;;;;;7.10;3.80;;;;;;;;;;5046625;28;20456;-59
2023/08/22 06:55:13;;;;;;;8.47;3.80;;;;;;;;;;5049783;28;20420;-58
2023/08/22 06:57:38;;;;;;;6.20;3.53;;;;;;;;;;5047526;28;20418;-59
2023/08/22 07:00:13;;;;;;;7.67;3.20;;;;;;;;;;5045270;28;20425;-59
2023/08/22 07:02:38;;;;;;;6.88;2.50;;;;;;;;;;5051207;28;20403;-58
2023/08/22 07:05:04;;;;;;;7.93;3.00;;;;;;;;;;5044719;28;20408;-59
2023/08/22 07:07:29;;;;;;;5.07;2.23;;;;;;;;;;5047549;28;20419;-59
2023/08/22 07:09:54;;;;;;;7.17;2.40;;;;;;;;;;5050329;28;20840;-58
2023/08/22 07:12:20;;;;;;;6.15;1.95;;;;;;;;;;5049167;28;20399;-59
2023/08/22 07:14:45;;;;;;;7.23;2.10;;;;;;;;;;5044290;28;20443;-58
2023/08/22 07:17:10;;;;;;;5.80;1.60;;;;;;;;;;5048814;28;20426;-59
2023/08/22 07:19:35;;;;;;;8.10;2.00;;;;;;;;;;5053117;28;20525;-58
2023/08/22 07:22:01;;;;;;;4.93;1.80;;;;;;;;;;5045555;28;20400;-59
2023/08/22 07:24:26;;;;;;;4.60;1.80;;;;;;;;;;5042140;28;20436;-59
2023/08/22 07:26:51;;;;;;;4.90;1.83;;;;;;;;;;5055401;28;20496;-59
2023/08/22 07:29:17;;;;;;;5.10;1.90;;;;;;;;;;5050999;28;20408;-59
2023/08/22 07:31:42;;;;;;;5.23;1.80;;;;;;;;;;5050946;28;20404;-59
2023/08/22 07:34:07;;;;;;;5.03;1.60;;;;;;;;;;5051300;28;20902;-59
2023/08/22 07:36:33;;;;;;;4.57;1.40;;;;;;;;;;5053909;28;20396;-59
2023/08/22 07:38:58;;;;;;;6.30;1.90;;;;;;;;;;5051933;28;21535;-59
2023/08/22 07:41:23;;;;;;;5.43;1.80;;;;;;;;;;5049219;28;20427;-59
2023/08/22 07:43:48;;;;;;;7.83;1.87;;;;;;;;;;5053757;28;20400;-59
2023/08/22 07:46:14;;;;;;;4.60;1.60;;;;;;;;;;5048649;28;21056;-59
2023/08/22 07:48:39;;;;;;;6.57;1.77;;;;;;;;;;5050850;28;20409;-59
2023/08/22 07:51:04;;;;;;;3.30;1.50;;;;;;;;;;5053654;28;20406;-59
2023/08/22 07:53:31;;;;;;;4.77;1.30;;;;;;;;;;5051137;28;20425;-59
2023/08/22 07:55:56;;;;;;;6.97;1.75;;;;;;;;;;5046738;28;20430;-59
2023/08/22 07:58:21;;;;;;;5.65;1.65;;;;;;;;;;5050911;28;20410;-58
2023/08/22 08:00:47;;;;;;;6.53;1.80;;;;;;;;;;5054682;28;20399;-59
2023/08/22 08:03:13;;;;;;;5.93;1.80;;;;;;;;;;5047790;28;20408;-59
2023/08/22 08:05:38;;;;;;;6.57;2.20;;;;;;;;;;5053198;28;20422;-59
2023/08/22 08:08:03;;;;;;;5.70;1.73;;;;;;;;;;5056085;28;20739;-59
2023/08/22 08:10:29;;;;;;;7.07;2.30;;;;;;;;;;5049774;28;20468;-59
2023/08/22 08:12:54;;;;;;;5.67;1.77;;;;;;;;;;5050672;28;20813;-59
2023/08/22 08:15:19;;;;;;;5.17;2.03;;;;;;;;;;5057089;28;20445;-59
2023/08/22 08:17:44;;;;;;;6.40;1.60;;;;;;;;;;5055487;28;20400;-58
2023/08/22 08:20:11;;;;;;;5.80;1.58;;;;;;;;;;5054300;28;20438;-59
2023/08/22 08:22:37;;;;;;;5.60;2.00;;;;;;;;;;5055373;28;20869;-59
2023/08/22 08:25:03;;;;;;;4.67;1.60;;;;;;;;;;5058006;28;20408;-59
2023/08/22 08:27:29;;;;;;;8.85;2.00;;;;;;;;;;5055494;28;20399;-59
2023/08/22 08:29:54;;;;;;;5.90;1.70;;;;;;;;;;5055263;28;20910;-58
2023/08/22 08:32:20;;;;;;;4.88;1.60;;;;;;;;;;5058765;28;20869;-59
2023/08/22 08:34:45;;;;;;;4.32;1.38;;;;;;;;;;5054642;28;20413;-58
2023/08/22 08:37:10;;;;;;;5.77;1.23;;;;;;;;;;5054688;28;20409;-59
2023/08/22 08:39:36;;;;;;;4.23;1.20;;;;;;;;;;5062826;28;20427;-58
2023/08/22 08:42:03;;;;;;;7.23;1.60;;;;;;;;;;5063158;28;20405;-59
2023/08/22 08:44:28;;;;;;;4.72;1.20;;;;;;;;;;5053370;28;20402;-58
2023/08/22 08:46:54;;;;;;;4.30;1.33;;;;;;;;;;5057407;28;20398;-58
2023/08/22 08:49:20;;;;;;;5.53;1.30;;;;;;;;;;5056522;28;20971;-58
2023/08/22 08:51:45;;;;;;;5.15;1.38;;;;;;;;;;5049194;28;20803;-58
2023/08/22 08:54:10;;;;;;;4.70;1.30;;;;;;;;;;5064508;28;20442;-59
2023/08/22 08:56:36;;;;;;;5.13;1.77;;;;;;;;;;5061431;28;20404;-58
2023/08/22 08:59:01;;;;;;;5.27;1.60;;;;;;;;;;5063723;28;20467;-59
2023/08/22 09:01:26;;;;;;;3.75;1.30;;;;;;;;;;5066562;28;20400;-58
2023/08/22 09:03:51;;;;;;;6.37;1.40;;;;;;;;;;5064966;28;20731;-58
2023/08/22 09:06:17;;;;;;;5.00;1.40;;;;;;;;;;5062165;28;20487;-58
2023/08/22 09:09:00;;;;;;;6.60;1.50;;;;;;;;;;5066117;28;20441;-58
2023/08/22 09:11:26;;;;;;;4.10;1.10;;;;;;;;;;5065436;28;20439;-58
2023/08/22 09:13:51;;;;;;;3.97;1.23;;;;;;;;;;5062648;28;20491;-58
2023/08/22 09:16:16;;;;;;;5.20;1.33;;;;;;;;;;5062649;28;20409;-58
2023/08/22 09:18:42;;;;;;;5.13;1.30;;;;;;;;;;5065860;28;20515;-58
2023/08/22 09:21:07;;;;;;;3.70;1.00;;;;;;;;;;5064225;28;20740;-58
2023/08/22 09:23:33;;;;;;;4.27;1.20;;;;;;;;;;5062426;28;20408;-58
2023/08/22 09:25:59;;;;;;;5.87;1.50;;;;;;;;;;5064647;28;20407;-58
2023/08/22 09:28:25;;;;;;;5.82;1.10;;;;;;;;;;5065357;28;20867;-58
2023/08/22 09:30:54;;;;;;;3.92;1.20;;;;;;;;;;5060494;28;20434;-59
2023/08/22 09:33:19;;;;;;;4.03;1.25;;;;;;;;;;5064308;28;20419;-58
2023/08/22 09:35:45;;;;;;;3.95;1.08;;;;;;;;;;5064866;28;20408;-58
2023/08/22 09:38:10;;;;;;;5.40;1.30;;;;;;;;;;5061567;28;21013;-59
2023/08/22 09:40:35;;;;;;;5.65;1.30;;;;;;;;;;5070211;28;20437;-58
2023/08/22 09:43:01;;;;;;;4.72;1.58;;;;;;;;;;5052121;28;20487;-59
2023/08/22 09:45:28;;;;;;;3.70;1.10;;;;;;;;;;5053923;28;20758;-58
2023/08/22 09:47:53;;;;;;;4.45;1.40;;;;;;;;;;5056360;28;20402;-58
2023/08/22 09:50:18;;;;;;;3.70;1.43;;;;;;;;;;5052623;28;20475;-58
2023/08/22 09:52:45;;;;;;;5.60;1.23;;;;;;;;;;5065828;28;20404;-58
2023/08/22 09:55:11;;;;;;;4.15;1.50;;;;;;;;;;5062789;28;20436;-59
2023/08/22 09:57:36;;;;;;;5.27;1.80;;;;;;;;;;5060895;28;20831;-59
2023/08/22 10:00:03;;;;;;;4.38;1.67;;;;;;;;;;5065116;28;21770;-59
2023/08/22 10:02:28;;;;;;;6.53;1.53;;;;;;;;;;5063671;28;20491;-58
2023/08/22 10:04:54;;;;;;;5.13;1.93;;;;;;;;;;5059486;28;20490;-58
2023/08/22 10:07:19;;;;;;;7.93;2.57;;;;;;;;;;5063983;28;20802;-59
2023/08/22 10:09:44;;;;;;;5.83;2.60;;;;;;;;;;5064577;28;20894;-58
2023/08/22 10:12:10;;;;;;;6.73;2.20;;;;;;;;;;5062080;28;20403;-58
2023/08/22 10:14:37;;;;;;;6.63;2.67;;;;;;;;;;5062159;28;20400;-58
2023/08/22 10:17:02;;;;;;;7.43;2.90;;;;;;;;;;5062630;28;20529;-58
2023/08/22 10:19:28;;;;;;;6.30;2.70;;;;;;;;;;5064347;28;20403;-57
2023/08/22 10:21:53;;;;;;;6.73;2.80;;;;;;;;;;5059761;28;20407;-58
2023/08/22 10:24:20;;;;;;;6.77;2.80;;;;;;;;;;5064512;28;20405;-58
2023/08/22 10:26:47;;;;;;;9.15;3.40;;;;;;;;;;5064390;28;20399;-58
2023/08/22 10:29:13;;;;;;;8.52;2.85;;;;;;;;;;5058682;28;20942;-58
2023/08/22 10:31:59;;;;;;;7.88;2.53;;;;;;;;;;5063241;28;20396;-58
2023/08/22 10:34:25;;;;;;;7.40;2.10;;;;;;;;;;5063308;28;20399;-58
2023/08/22 10:36:59;;;;;;;6.07;2.42;;;;;;;;;;5064582;28;20720;-58
2023/08/22 10:39:34;;;;;;;6.45;2.50;;;;;;;;;;5038886;28;20464;-58
2023/08/22 10:41:59;;;;;;;4.88;1.70;;;;;;;;;;5043252;28;20389;-58
2023/08/22 10:44:30;;;;;;;4.37;1.50;;;;;;;;;;5031317;28;20473;-58
2023/08/22 10:47:00;;;;;;;6.68;1.67;;;;;;;;;;5042794;28;20404;-58
2023/08/22 10:49:29;;;;;;;4.30;1.50;;;;;;;;;;5040381;28;21438;-58
2023/08/22 10:51:59;;;;;;;5.38;1.23;;;;;;;;;;5030435;28;20457;-58
2023/08/22 10:54:25;;;;;;;6.68;1.52;;;;;;;;;;5070922;28;20385;-58
2023/08/22 10:57:07;;;;;;;5.43;1.60;;;;;;;;;;5060744;28;20408;-58
2023/08/22 10:59:32;;;;;;;5.77;1.43;;;;;;;;;;5039149;28;20446;-58
2023/08/22 11:01:58;;;;;;;6.50;2.07;;;;;;;;;;5038659;28;20441;-58
2023/08/22 11:04:23;;;;;;;3.63;1.53;;;;;;;;;;5043383;28;20753;-58
2023/08/22 11:06:49;;;;;;;5.77;1.60;;;;;;;;;;5037829;28;20409;-58
2023/08/22 11:09:14;;;;;;;5.28;1.50;;;;;;;;;;5043310;28;20810;-58
2023/08/22 11:11:39;;;;;;;4.93;1.37;;;;;;;;;;5031150;28;20474;-58
2023/08/22 11:14:05;;;;;;;5.28;1.67;;;;;;;;;;5038327;28;20999;-58
2023/08/22 11:16:30;;;;;;;4.35;1.50;;;;;;;;;;5042153;28;20409;-58
2023/08/22 11:18:55;;;;;;;4.90;1.50;;;;;;;;;;5043649;28;21445;-58
2023/08/22 11:21:20;;;;;;;5.00;1.70;;;;;;;;;;5040471;28;20381;-58
2023/08/22 11:23:46;;;;;;;5.20;1.60;;;;;;;;;;5040094;28;20433;-58
2023/08/22 11:26:12;;;;;;;4.45;1.83;;;;;;;;;;5043130;28;20473;-58
2023/08/22 11:28:37;;;;;;;5.80;1.65;;;;;;;;;;5043774;28;20738;-58
2023/08/22 11:31:04;;;;;;;5.23;1.53;;;;;;;;;;5037720;28;20401;-59
2023/08/22 11:33:34;;;;;;;3.47;1.30;;;;;;;;;;5042959;28;20416;-58
2023/08/22 11:35:59;;;;;;;3.67;1.30;;;;;;;;;;5042949;28;20489;-58
2023/08/22 11:38:25;;;;;;;4.07;1.10;;;;;;;;;;5040405;28;20488;-59
2023/08/22 11:40:50;;;;;;;3.37;1.40;;;;;;;;;;5040697;28;20781;-58
2023/08/22 11:43:15;;;;;;;3.37;1.20;;;;;;;;;;5038887;28;20473;-58
2023/08/22 11:45:47;;;;;;;6.57;1.00;;;;;;;;;;5042740;28;20451;-58
2023/08/22 11:48:14;;;;;;;8.30;1.33;;;;;;;;;;5034303;28;21347;-58
2023/08/22 11:50:39;;;;;;;2.75;0.80;;;;;;;;;;5040158;28;20401;-58
2023/08/22 11:53:09;;;;;;;4.07;0.90;;;;;;;;;;5041737;28;20915;-58
2023/08/22 11:55:35;;;;;;;2.90;0.57;;;;;;;;;;5038203;28;20443;-58
2023/08/22 11:58:00;;;;;;;4.10;0.70;;;;;;;;;;5042407;28;20407;-58
2023/08/22 12:00:29;;;;;;;4.13;0.60;;;;;;;;;;5061620;28;27335;-58
2023/08/22 12:02:55;;;;;;;2.30;0.68;;;;;;;;;;5062858;28;20402;-58
2023/08/22 12:05:30;;;;;;;1.43;0.60;;;;;;;;;;5058335;28;20392;-58
2023/08/22 12:07:57;;;;;;;3.22;0.50;;;;;;;;;;5046329;28;20774;-58
2023/08/22 12:10:23;;;;;;;2.75;0.60;;;;;;;;;;5062200;28;20388;-58
2023/08/22 12:12:48;;;;;;;3.77;0.70;;;;;;;;;;5059599;28;20409;-58
2023/08/22 12:15:13;;;;;;;2.43;0.83;;;;;;;;;;5059948;28;20404;-58
2023/08/22 12:17:38;;;;;;;2.80;0.67;;;;;;;;;;5058020;28;20403;-58
2023/08/22 12:20:04;;;;;;;1.83;0.70;;;;;;;;;;5059548;28;20905;-58
2023/08/22 12:22:29;;;;;;;4.78;0.93;;;;;;;;;;5058629;28;20486;-58
2023/08/22 12:24:54;;;;;;;3.30;0.83;;;;;;;;;;5063004;28;20619;-58
2023/08/22 12:27:20;;;;;;;1.87;0.73;;;;;;;;;;5062876;28;20810;-58
2023/08/22 12:29:45;;;;;;;3.53;0.90;;;;;;;;;;5056292;28;20428;-58
2023/08/22 12:32:11;;;;;;;2.28;0.60;;;;;;;;;;5062000;28;20870;-58
2023/08/22 12:34:36;;;;;;;2.13;0.63;;;;;;;;;;5050203;28;20430;-58
2023/08/22 12:37:02;;;;;;;4.25;0.80;;;;;;;;;;5058702;28;20396;-59
2023/08/22 12:39:27;;;;;;;2.85;0.70;;;;;;;;;;5059991;28;20402;-58
2023/08/22 12:41:52;;;;;;;3.93;0.80;;;;;;;;;;5063191;28;20766;-58
2023/08/22 12:44:17;;;;;;;2.80;0.80;;;;;;;;;;5058635;28;20492;-58
2023/08/22 12:46:43;;;;;;;2.95;0.82;;;;;;;;;;5056718;28;20934;-58
2023/08/22 12:49:08;;;;;;;4.43;0.90;;;;;;;;;;5062624;28;20396;-58
2023/08/22 12:51:33;;;;;;;3.17;0.90;;;;;;;;;;5061592;28;20392;-58
2023/08/22 12:53:59;;;;;;;2.57;0.80;;;;;;;;;;5058329;28;20396;-58
2023/08/22 12:56:27;;;;;;;3.50;1.07;;;;;;;;;;5061506;28;20400;-58
2023/08/22 12:58:53;;;;;;;3.97;1.42;;;;;;;;;;5061978;28;21042;-58
2023/08/22 13:01:19;;;;;;;3.90;1.23;;;;;;;;;;5060676;28;20461;-58
2023/08/22 13:03:44;;;;;;;3.70;1.30;;;;;;;;;;5062422;28;20470;-58
2023/08/22 13:06:10;;;;;;;3.58;1.45;;;;;;;;;;5066340;28;20411;-58
2023/08/22 13:08:35;;;;;;;5.38;1.50;;;;;;;;;;5066083;28;20415;-58
2023/08/22 13:11:00;;;;;;;4.00;1.30;;;;;;;;;;5060317;28;21035;-61
2023/08/22 13:13:26;;;;;;;6.33;1.63;;;;;;;;;;5066398;28;20412;-58
2023/08/22 13:15:51;;;;;;;3.97;1.40;;;;;;;;;;5066420;28;20416;-58
2023/08/22 13:18:17;;;;;;;4.73;1.37;;;;;;;;;;5061757;28;20869;-58
2023/08/22 13:20:42;;;;;;;4.70;1.50;;;;;;;;;;5064502;28;20417;-58
2023/08/22 13:23:07;;;;;;;5.83;1.70;;;;;;;;;;5065208;28;20435;-58
2023/08/22 13:25:33;;;;;;;3.73;1.30;;;;;;;;;;5064590;28;20392;-58
2023/08/22 13:27:58;;;;;;;3.70;1.10;;;;;;;;;;5062228;28;20409;-58
2023/08/22 13:30:23;;;;;;;3.70;1.20;;;;;;;;;;5060996;28;20384;-58
2023/08/22 13:32:49;;;;;;;4.03;1.10;;;;;;;;;;5048906;28;20804;-58
2023/08/22 13:35:15;;;;;;;4.28;0.90;;;;;;;;;;5032881;28;20399;-58
2023/08/22 13:37:42;;;;;;;3.20;0.97;;;;;;;;;;5026855;28;20545;-58
2023/08/22 13:40:08;;;;;;;2.80;1.00;;;;;;;;;;5028447;28;20467;-58
2023/08/22 13:42:33;;;;;;;3.92;1.30;;;;;;;;;;5039618;28;20492;-58
2023/08/22 13:44:58;;;;;;;4.57;0.90;;;;;;;;;;5037529;28;20803;-58
2023/08/22 13:47:24;;;;;;;3.37;1.00;;;;;;;;;;5034371;28;20392;-58
2023/08/22 13:49:50;;;;;;;3.30;0.83;;;;;;;;;;5041156;28;20409;-58
2023/08/22 13:52:15;;;;;;;4.13;1.00;;;;;;;;;;5040138;28;21007;-58
2023/08/22 13:54:40;;;;;;;6.60;1.43;;;;;;;;;;5032167;28;20414;-58
2023/08/22 13:57:06;;;;;;;3.47;1.30;;;;;;;;;;5027885;28;21257;-58
2023/08/22 13:59:31;;;;;;;3.73;1.33;;;;;;;;;;5029778;28;20407;-58
2023/08/22 14:01:56;;;;;;;3.90;1.07;;;;;;;;;;5029394;28;20398;-58
2023/08/22 14:04:21;;;;;;;4.60;1.10;;;;;;;;;;5032846;28;20489;-58
2023/08/22 14:06:47;;;;;;;3.53;1.00;;;;;;;;;;5038972;28;20401;-58
2023/08/22 14:09:12;;;;;;;5.97;1.10;;;;;;;;;;5035006;28;20417;-58
2023/08/22 14:11:37;;;;;;;3.73;0.80;;;;;;;;;;5032833;28;20404;-58
2023/08/22 14:14:03;;;;;;;2.77;0.90;;;;;;;;;;5033393;28;20434;-58
2023/08/22 14:16:28;;;;;;;4.63;1.00;;;;;;;;;;5035776;28;20482;-58
2023/08/22 14:18:53;;;;;;;5.37;1.17;;;;;;;;;;5028918;28;20524;-58
2023/08/22 14:21:19;;;;;;;5.40;1.10;;;;;;;;;;5026016;28;20403;-58
2023/08/22 14:23:44;;;;;;;4.80;1.17;;;;;;;;;;5029617;28;20634;-58
2023/08/22 14:26:09;;;;;;;4.63;1.50;;;;;;;;;;5030822;28;20772;-58
2023/08/22 14:28:35;;;;;;;4.80;1.90;;;;;;;;;;5033746;28;20581;-58
2023/08/22 14:31:00;;;;;;;3.73;1.50;;;;;;;;;;5034118;28;20414;-58
2023/08/22 14:33:25;;;;;;;5.72;1.80;;;;;;;;;;5039396;28;20917;-58